KBFI/BFI METAR and TAF weather

Enter ICAO airport designator
Station Type Date Time Source
KBFI METAR 2019/04/19 21:53 UTC NOAA

KBFI 192153Z VRB05KT 10SM -RA SCT008 OVC018 12/10 A2999 RMK AO2 SLP156 P0002 T01220100


Station Type Date Time Source
KBFI Decoded METAR 2019/04/19 21:53 UTC NOAA

SEATTLE BOEING FIELD, WA, United States (KBFI) 47-33N 122-19W 4M
Apr 19, 2019 - 05:53 PM EDT / 2019.04.19 2153 UTC
Wind: Variable at 6 MPH (5 KT):0
Visibility: 10 mile(s):0
Sky conditions: overcast
Weather: light rain
Precipitation last hour: 0.02 inches
Temperature: 54.0 F (12.2 C)
Dew Point: 50.0 F (10.0 C)
Relative Humidity: 86%
Pressure (altimeter): 29.99 in. Hg (1015 hPa)
ob: KBFI 192153Z VRB05KT 10SM -RA SCT008 OVC018 12/10 A2999 RMK AO2 SLP156 P0002 T01220100
cycle: 22

Station Type Date Time Source
KBFI TAF 2019/04/19 20:04 UTC NOAA

TAF
AMD KBFI 192002Z 1920/2018 VRB04KT P6SM -SHRA SCT008 BKN013 OVC025
FM192300 VRB04KT P6SM -SHRA SCT015 OVC022
FM200400 31005KT P6SM VCSH SCT025 BKN050
FM200700 03005KT P6SM OVC018

Example: see airport list